createdAt,value
2019-01-14T00:02:18.109Z,1.67
2019-01-14T00:04:55.386Z,1.57
2019-01-14T00:07:21.782Z,1.80
2019-01-14T00:09:52.743Z,1.60
2019-01-14T00:12:23.753Z,1.73
2019-01-14T00:14:54.685Z,1.83
2019-01-14T00:17:25.601Z,1.87
2019-01-14T00:19:56.610Z,2.43
2019-01-14T00:22:27.584Z,1.60
2019-01-14T00:24:58.597Z,1.53
2019-01-14T00:27:29.526Z,1.47
2019-01-14T00:30:00.438Z,1.40
2019-01-14T00:32:31.406Z,1.60
2019-01-14T00:35:02.313Z,1.33
2019-01-14T00:37:33.229Z,1.47
2019-01-14T00:40:04.422Z,1.50
2019-01-14T00:42:35.710Z,1.60
2019-01-14T00:45:06.852Z,2.00
2019-01-14T00:47:37.815Z,1.53
2019-01-14T00:50:09.754Z,1.30
2019-01-14T00:52:40.702Z,1.50
2019-01-14T00:55:11.610Z,1.50
2019-01-14T00:57:42.518Z,1.77
2019-01-14T01:00:19.270Z,1.20
2019-01-14T01:02:50.295Z,2.10
2019-01-14T01:05:21.280Z,1.77
2019-01-14T01:07:52.334Z,1.40
2019-01-14T01:10:23.350Z,1.77
2019-01-14T01:12:54.348Z,1.80
2019-01-14T01:15:25.245Z,1.70
2019-01-14T01:17:56.232Z,1.43
2019-01-14T01:20:28.579Z,1.60
2019-01-14T01:22:59.572Z,1.40
2019-01-14T01:25:30.493Z,1.67
2019-01-14T01:28:01.482Z,1.50
2019-01-14T01:30:32.416Z,1.80
2019-01-14T01:33:03.341Z,1.70
2019-01-14T01:35:34.372Z,1.70
2019-01-14T01:38:05.326Z,1.40
2019-01-14T01:40:36.249Z,1.60
2019-01-14T01:43:07.322Z,1.50
2019-01-14T01:45:38.229Z,1.40
2019-01-14T01:48:09.219Z,1.57
2019-01-14T01:50:40.061Z,1.37
2019-01-14T01:53:11.013Z,1.53
2019-01-14T01:55:41.958Z,1.70
2019-01-14T01:58:12.905Z,1.60
2019-01-14T02:00:43.828Z,1.40
2019-01-14T02:03:14.773Z,1.60
2019-01-14T02:05:45.751Z,1.80
2019-01-14T02:08:16.683Z,1.90
2019-01-14T02:10:47.577Z,1.67
2019-01-14T02:13:18.574Z,1.90
2019-01-14T02:15:49.542Z,1.60
2019-01-14T02:18:20.502Z,1.80
2019-01-14T02:20:51.536Z,1.30
2019-01-14T02:23:22.559Z,1.90
2019-01-14T02:25:53.457Z,1.73
2019-01-14T02:28:24.416Z,1.70
2019-01-14T02:30:55.386Z,1.57
2019-01-14T02:33:26.373Z,1.80
2019-01-14T02:35:57.656Z,1.43
2019-01-14T02:38:28.641Z,1.40
2019-01-14T02:40:59.570Z,1.90
2019-01-14T02:43:30.472Z,2.43
2019-01-14T02:46:01.367Z,2.03
2019-01-14T02:48:32.264Z,1.93
2019-01-14T02:51:04.243Z,2.10
2019-01-14T02:53:35.219Z,2.13
2019-01-14T02:56:06.118Z,2.37
2019-01-14T02:58:37.099Z,2.00
2019-01-14T03:01:08.086Z,1.93
2019-01-14T03:03:39.055Z,1.83
2019-01-14T03:06:09.975Z,1.70
2019-01-14T03:08:40.985Z,1.77
2019-01-14T03:11:11.898Z,1.77
2019-01-14T03:13:42.849Z,1.80
2019-01-14T03:16:13.804Z,2.30
2019-01-14T03:18:44.710Z,2.63
2019-01-14T03:21:15.617Z,2.40
2019-01-14T03:23:46.533Z,2.37
2019-01-14T03:26:17.425Z,2.10
2019-01-14T03:28:48.339Z,2.27
2019-01-14T03:31:19.321Z,2.27
2019-01-14T03:33:50.226Z,2.30
2019-01-14T03:36:21.137Z,2.33
2019-01-14T03:38:52.033Z,2.40
2019-01-14T03:41:22.959Z,2.17
2019-01-14T03:43:53.861Z,2.00
2019-01-14T03:46:24.773Z,2.43
2019-01-14T03:48:56.875Z,2.10
2019-01-14T03:51:27.777Z,2.60
2019-01-14T03:53:58.687Z,2.07
2019-01-14T03:56:29.598Z,2.17
2019-01-14T03:59:00.493Z,2.07
2019-01-14T04:01:31.411Z,2.20
2019-01-14T04:04:02.393Z,2.17
2019-01-14T04:06:33.398Z,2.00
2019-01-14T04:09:06.230Z,1.87
2019-01-14T04:11:37.327Z,1.97
2019-01-14T04:14:08.232Z,2.07
2019-01-14T04:16:39.150Z,2.00
2019-01-14T04:19:10.053Z,2.83
2019-01-14T04:21:40.980Z,2.47
2019-01-14T04:24:11.881Z,2.40
2019-01-14T04:26:42.801Z,2.70
2019-01-14T04:29:13.713Z,2.60
2019-01-14T04:31:44.632Z,2.73
2019-01-14T04:34:15.564Z,3.00
2019-01-14T04:36:46.474Z,3.07
2019-01-14T04:39:17.484Z,2.80
2019-01-14T04:41:48.421Z,2.97
2019-01-14T04:44:19.326Z,2.73
2019-01-14T04:46:50.238Z,2.77
2019-01-14T04:49:21.139Z,2.57
2019-01-14T04:51:52.044Z,2.33
2019-01-14T04:54:22.941Z,2.40
2019-01-14T04:56:53.862Z,1.97
2019-01-14T04:59:24.755Z,2.03
2019-01-14T05:01:55.677Z,2.40
2019-01-14T05:04:26.586Z,2.30
2019-01-14T05:06:57.559Z,1.93
2019-01-14T05:09:28.513Z,2.60
2019-01-14T05:11:59.411Z,2.20
2019-01-14T05:14:30.323Z,2.67
2019-01-14T05:17:02.731Z,3.30
2019-01-14T05:19:33.784Z,2.53
2019-01-14T05:22:04.735Z,2.43
2019-01-14T05:24:35.704Z,2.83
2019-01-14T05:27:06.675Z,2.80
2019-01-14T05:29:37.652Z,2.97
2019-01-14T05:32:09.018Z,3.20
2019-01-14T05:34:39.965Z,3.07
2019-01-14T05:37:10.923Z,3.03
2019-01-14T05:39:41.920Z,2.57
2019-01-14T05:42:13.176Z,2.73
2019-01-14T05:44:44.115Z,2.80
2019-01-14T05:47:15.054Z,2.67
2019-01-14T05:49:45.971Z,2.57
2019-01-14T05:52:16.860Z,2.60
2019-01-14T05:54:47.861Z,2.80
2019-01-14T05:57:18.811Z,2.50
2019-01-14T05:59:50.257Z,2.03
2019-01-14T06:02:21.177Z,1.90
2019-01-14T06:04:53.186Z,1.93
2019-01-14T06:07:24.123Z,1.87
2019-01-14T06:09:55.057Z,1.77
2019-01-14T06:12:26.009Z,1.60
2019-01-14T06:14:56.943Z,1.80
2019-01-14T06:17:27.837Z,1.50
2019-01-14T06:19:59.034Z,2.30
2019-01-14T06:22:29.962Z,1.87
2019-01-14T06:25:00.937Z,1.63
2019-01-14T06:27:31.882Z,1.60
2019-01-14T06:30:02.780Z,2.80
2019-01-14T06:32:33.715Z,1.70
2019-01-14T06:35:04.920Z,1.53
2019-01-14T06:37:35.873Z,2.27
2019-01-14T06:40:08.104Z,1.50
2019-01-14T06:42:39.101Z,1.67
2019-01-14T06:45:11.571Z,1.50
2019-01-14T06:47:42.465Z,1.97
2019-01-14T06:50:14.644Z,1.77
2019-01-14T06:52:45.587Z,1.43
2019-01-14T06:55:16.673Z,1.77
2019-01-14T06:57:47.575Z,1.43
2019-01-14T07:00:24.533Z,1.60
2019-01-14T07:02:55.451Z,2.00
2019-01-14T07:05:26.442Z,1.50
2019-01-14T07:07:59.778Z,1.50
2019-01-14T07:10:31.204Z,2.10
2019-01-14T07:13:02.098Z,2.23
2019-01-14T07:15:33.031Z,1.90
2019-01-14T07:18:03.940Z,1.93
2019-01-14T07:20:34.854Z,1.53
2019-01-14T07:23:05.785Z,1.80
2019-01-14T07:25:36.695Z,2.80
2019-01-14T07:28:07.666Z,2.10
2019-01-14T07:30:38.590Z,1.80
2019-01-14T07:33:09.582Z,2.43
2019-01-14T07:35:40.536Z,2.53
2019-01-14T07:38:11.720Z,3.87
2019-01-14T07:40:42.639Z,3.73
2019-01-14T07:43:13.690Z,2.83
2019-01-14T07:45:44.764Z,2.63
2019-01-14T07:48:15.922Z,3.43
2019-01-14T07:50:46.857Z,3.17
2019-01-14T07:53:18.855Z,2.40
2019-01-14T07:55:49.771Z,2.40
2019-01-14T07:58:20.969Z,2.17
2019-01-14T08:00:51.913Z,2.20
2019-01-14T08:03:23.483Z,2.17
2019-01-14T08:05:54.453Z,2.10
2019-01-14T08:08:25.403Z,3.30
2019-01-14T08:10:56.326Z,7.30
2019-01-14T08:13:27.280Z,5.40
2019-01-14T08:15:58.209Z,2.70
2019-01-14T08:18:29.176Z,2.37
2019-01-14T08:21:00.101Z,2.00
2019-01-14T08:23:31.115Z,2.37
2019-01-14T08:26:02.126Z,1.73
2019-01-14T08:28:33.038Z,2.40
2019-01-14T08:31:03.983Z,2.53
2019-01-14T08:33:34.955Z,3.50
2019-01-14T08:36:06.493Z,1.57
2019-01-14T08:38:37.520Z,1.70
2019-01-14T08:41:09.278Z,1.60
2019-01-14T08:43:40.592Z,2.03
2019-01-14T08:46:11.832Z,1.80
2019-01-14T08:48:48.759Z,1.70
2019-01-14T08:51:15.556Z,1.63
2019-01-14T08:53:46.658Z,1.90
2019-01-14T08:56:17.633Z,3.87
2019-01-14T08:58:48.535Z,2.90
2019-01-14T09:01:19.540Z,2.07
2019-01-14T09:03:50.905Z,1.93
2019-01-14T09:06:22.921Z,2.03
2019-01-14T09:08:53.879Z,1.70
2019-01-14T09:11:24.818Z,2.20
2019-01-14T09:13:56.901Z,2.03
2019-01-14T09:16:27.881Z,2.07
2019-01-14T09:18:58.960Z,2.37
2019-01-14T09:21:30.342Z,2.10
2019-01-14T09:24:02.434Z,2.50
2019-01-14T09:26:33.478Z,2.00
2019-01-14T09:29:04.468Z,2.00
2019-01-14T09:31:35.492Z,2.00
2019-01-14T09:34:06.917Z,2.60
2019-01-14T09:36:38.014Z,2.57
2019-01-14T09:39:10.370Z,3.07
2019-01-14T09:41:41.412Z,3.03
2019-01-14T09:44:12.498Z,3.37
2019-01-14T09:46:43.520Z,3.90
2019-01-14T09:49:14.529Z,3.17
2019-01-14T09:51:45.472Z,2.80
2019-01-14T09:54:16.447Z,3.20
2019-01-14T09:56:47.749Z,4.20
2019-01-14T09:59:18.677Z,3.90
2019-01-14T10:01:49.670Z,4.33
2019-01-14T10:04:21.122Z,2.50
2019-01-14T10:06:52.071Z,2.40
2019-01-14T10:09:23.011Z,2.07
2019-01-14T10:11:53.926Z,2.50
2019-01-14T10:14:24.925Z,1.80
2019-01-14T10:16:56.520Z,1.70
2019-01-14T10:19:27.561Z,1.93
2019-01-14T10:21:58.490Z,1.57
2019-01-14T10:24:29.406Z,1.97
2019-01-14T10:28:53.537Z,2.90
2019-01-14T10:31:24.668Z,2.40
2019-01-14T10:33:55.967Z,2.83
2019-01-14T10:36:27.053Z,3.53
2019-01-14T10:38:57.993Z,2.30
2019-01-14T10:41:29.013Z,2.40
2019-01-14T10:43:59.977Z,2.13
2019-01-14T10:46:31.103Z,2.33
2019-01-14T10:49:06.666Z,2.13
2019-01-14T10:51:35.009Z,2.10
2019-01-14T10:54:05.996Z,2.03
2019-01-14T10:56:37.323Z,2.03
2019-01-14T10:59:08.372Z,1.47
2019-01-14T11:01:39.337Z,1.30
2019-01-14T11:04:10.340Z,1.40
2019-01-14T11:06:41.338Z,1.50
2019-01-14T11:09:12.346Z,1.70
2019-01-14T11:11:43.381Z,1.53
2019-01-14T11:14:14.583Z,1.57
2019-01-14T11:16:46.409Z,1.83
2019-01-14T11:19:17.384Z,1.50
2019-01-14T11:21:48.566Z,1.80
2019-01-14T11:24:19.879Z,1.87
2019-01-14T11:26:50.793Z,3.37
2019-01-14T11:29:21.830Z,1.57
2019-01-14T11:31:52.757Z,1.93
2019-01-14T11:34:23.695Z,1.77
2019-01-14T11:36:54.696Z,1.30
2019-01-14T11:39:25.634Z,1.60
2019-01-14T11:41:59.688Z,1.67
2019-01-14T11:44:31.183Z,1.90
2019-01-14T11:47:02.356Z,2.60
2019-01-14T11:49:33.334Z,2.33
2019-01-14T11:52:06.834Z,1.70
2019-01-14T11:54:37.817Z,1.87
2019-01-14T11:57:08.896Z,1.60
2019-01-14T11:59:39.893Z,1.80
2019-01-14T12:02:10.945Z,2.10
2019-01-14T12:04:43.096Z,1.63
2019-01-14T12:07:14.085Z,1.70
2019-01-14T12:09:44.995Z,1.40
2019-01-14T12:12:15.921Z,1.50
2019-01-14T12:14:46.955Z,1.40
2019-01-14T12:17:18.038Z,2.37
2019-01-14T12:19:49.048Z,1.27
2019-01-14T12:22:20.064Z,1.30
2019-01-14T12:24:51.070Z,1.67
2019-01-14T12:27:22.036Z,3.30
2019-01-14T12:29:53.019Z,2.30
2019-01-14T12:32:24.017Z,2.90
2019-01-14T12:34:55.002Z,2.70
2019-01-14T12:37:26.095Z,2.93
2019-01-14T12:39:57.138Z,2.20
2019-01-14T12:42:28.193Z,2.33
2019-01-14T12:44:59.142Z,2.40
2019-01-14T12:47:30.191Z,2.10
2019-01-14T12:50:01.181Z,2.23
2019-01-14T12:52:33.305Z,3.30
2019-01-14T12:55:04.673Z,3.10
2019-01-14T12:57:35.599Z,2.30
2019-01-14T13:00:12.601Z,2.67
2019-01-14T13:02:43.641Z,2.77
2019-01-14T13:05:15.296Z,1.90
2019-01-14T13:07:46.289Z,2.73
2019-01-14T13:10:17.267Z,3.27
2019-01-14T13:12:48.225Z,3.23
2019-01-14T13:15:21.345Z,5.00
2019-01-14T13:17:53.287Z,3.17
2019-01-14T13:20:24.253Z,2.80
2019-01-14T13:22:55.354Z,2.70
2019-01-14T13:25:26.403Z,2.63
2019-01-14T13:27:57.428Z,2.87
2019-01-14T13:30:29.999Z,2.30
2019-01-14T13:33:01.076Z,2.20
2019-01-14T13:35:32.140Z,2.40
2019-01-14T13:38:03.169Z,1.93
2019-01-14T13:40:34.360Z,2.37
2019-01-14T13:43:05.460Z,1.77
2019-01-14T13:45:36.414Z,2.07
2019-01-14T13:48:07.680Z,2.27
2019-01-14T13:50:38.858Z,1.70
2019-01-14T13:53:09.876Z,2.90
2019-01-14T13:55:40.943Z,3.03
2019-01-14T13:58:12.097Z,2.80
2019-01-14T14:00:43.061Z,1.80
2019-01-14T14:03:14.111Z,2.77
2019-01-14T14:05:45.168Z,2.80
2019-01-14T14:08:16.723Z,2.70
2019-01-14T14:10:47.718Z,2.53
2019-01-14T14:13:18.893Z,2.23
2019-01-14T14:15:49.867Z,1.77
2019-01-14T14:18:20.834Z,2.03
2019-01-14T14:20:51.762Z,2.47
2019-01-14T14:23:22.853Z,2.43
2019-01-14T14:25:57.512Z,2.40
2019-01-14T14:28:29.676Z,3.20
2019-01-14T14:31:00.748Z,3.77
2019-01-14T14:33:31.865Z,3.50
2019-01-14T14:36:02.831Z,3.17
2019-01-14T14:38:33.848Z,3.13
2019-01-14T14:41:04.860Z,3.03
2019-01-14T14:43:36.126Z,3.13
2019-01-14T14:46:07.202Z,3.03
2019-01-14T14:48:39.530Z,3.63
2019-01-14T14:51:10.625Z,3.23
2019-01-14T14:53:41.665Z,4.30
2019-01-14T14:56:12.686Z,4.13
2019-01-14T14:58:43.757Z,4.83
2019-01-14T15:01:14.836Z,6.30
2019-01-14T15:03:45.797Z,5.70
2019-01-14T15:06:17.017Z,6.00
2019-01-14T15:08:48.001Z,6.10
2019-01-14T15:11:18.998Z,6.53
2019-01-14T15:13:50.095Z,4.60
2019-01-14T15:16:21.315Z,5.30
2019-01-14T15:18:52.660Z,4.70
2019-01-14T15:21:23.705Z,4.40
2019-01-14T15:23:54.637Z,5.60
2019-01-14T15:26:25.927Z,3.57
2019-01-14T15:28:56.997Z,3.30
2019-01-14T15:31:27.995Z,3.43
2019-01-14T15:33:59.077Z,4.20
2019-01-14T15:36:30.156Z,3.40
2019-01-14T15:39:01.207Z,4.20
2019-01-14T15:41:33.755Z,4.70
2019-01-14T15:44:05.104Z,4.73
2019-01-14T15:46:36.146Z,4.57
2019-01-14T15:49:07.306Z,4.60
2019-01-14T15:51:38.238Z,4.60
2019-01-14T15:54:09.321Z,4.53
2019-01-14T15:56:40.483Z,5.03
2019-01-14T15:59:11.461Z,4.90
2019-01-14T16:01:42.563Z,3.90
2019-01-14T16:04:13.614Z,4.93
2019-01-14T16:06:45.624Z,3.93
2019-01-14T16:09:16.712Z,4.83
2019-01-14T16:11:50.656Z,4.33
2019-01-14T16:14:21.633Z,4.67
2019-01-14T16:16:52.623Z,4.50
2019-01-14T16:19:23.649Z,4.03
2019-01-14T16:21:54.650Z,3.93
2019-01-14T16:24:25.834Z,3.47
2019-01-14T16:26:56.921Z,4.70
2019-01-14T16:29:27.970Z,4.67
2019-01-14T16:31:58.882Z,3.17
2019-01-14T16:34:29.867Z,3.83
2019-01-14T16:37:01.042Z,3.47
2019-01-14T16:39:32.168Z,4.33
2019-01-14T16:42:04.066Z,4.23
2019-01-14T16:44:35.231Z,3.80
2019-01-14T16:47:06.226Z,3.67
2019-01-14T16:49:37.379Z,3.73
2019-01-14T16:52:08.275Z,4.00
2019-01-14T16:54:39.325Z,4.60
2019-01-14T16:57:10.391Z,4.43
2019-01-14T16:59:41.460Z,4.83
2019-01-14T17:02:12.497Z,4.00
2019-01-14T17:04:43.549Z,5.10
2019-01-14T17:07:14.520Z,4.10
2019-01-14T17:09:45.542Z,4.03
2019-01-14T17:12:16.605Z,4.73
2019-01-14T17:14:47.657Z,4.83
2019-01-14T17:17:18.685Z,4.87
2019-01-14T17:19:50.840Z,4.37
2019-01-14T17:22:22.974Z,3.67
2019-01-14T17:24:54.083Z,2.90
2019-01-14T17:27:25.014Z,3.70
2019-01-14T17:29:58.375Z,3.50
2019-01-14T17:32:30.204Z,3.37
2019-01-14T17:35:01.235Z,3.83
2019-01-14T17:37:33.040Z,3.17
2019-01-14T17:40:04.504Z,2.67
2019-01-14T17:42:35.839Z,3.60
2019-01-14T17:45:08.993Z,3.60
2019-01-14T17:47:41.442Z,3.80
2019-01-14T17:50:17.024Z,4.17
2019-01-14T17:52:50.619Z,4.17
2019-01-14T17:55:21.774Z,4.07
2019-01-14T17:57:52.797Z,6.60
2019-01-14T18:00:27.785Z,6.90
2019-01-14T18:03:01.987Z,3.70
2019-01-14T18:05:33.066Z,4.20
2019-01-14T18:08:04.178Z,6.43
2019-01-14T18:10:40.102Z,3.90
2019-01-14T18:13:11.316Z,3.70
2019-01-14T18:15:42.411Z,3.77
2019-01-14T18:18:13.440Z,3.60
2019-01-14T18:20:44.521Z,3.30
2019-01-14T18:23:15.493Z,3.40
2019-01-14T18:25:46.561Z,3.10
2019-01-14T18:28:17.561Z,3.10
2019-01-14T18:30:48.591Z,3.63
2019-01-14T18:33:19.949Z,3.47
2019-01-14T18:35:51.015Z,3.10
2019-01-14T18:38:21.948Z,3.43
2019-01-14T18:40:52.899Z,3.90
2019-01-14T18:43:23.804Z,3.27
2019-01-14T18:45:54.874Z,3.37
2019-01-14T18:48:25.855Z,2.80
2019-01-14T18:50:56.920Z,3.10
2019-01-14T18:53:27.859Z,2.97
2019-01-14T18:56:01.761Z,15.13
2019-01-14T18:58:33.947Z,8.43
2019-01-14T19:01:04.986Z,13.57
2019-01-14T19:03:35.985Z,10.70
2019-01-14T19:06:07.042Z,6.60
2019-01-14T19:08:38.096Z,8.93
2019-01-14T19:11:09.065Z,6.83
2019-01-14T19:13:40.033Z,5.20
2019-01-14T19:16:11.013Z,4.90
2019-01-14T19:18:42.049Z,4.47
2019-01-14T19:21:13.030Z,5.17
2019-01-14T19:23:44.056Z,4.70
2019-01-14T19:26:15.067Z,3.97
2019-01-14T19:28:48.403Z,5.33
2019-01-14T19:31:19.417Z,4.13
2019-01-14T19:33:50.369Z,6.00
2019-01-14T19:36:21.354Z,5.03
2019-01-14T19:38:52.308Z,5.03
2019-01-14T19:41:25.606Z,5.40
2019-01-14T19:43:56.565Z,5.13
2019-01-14T19:46:27.591Z,5.23
2019-01-14T19:48:58.522Z,6.90
2019-01-14T19:51:32.070Z,5.53
2019-01-14T19:54:02.988Z,6.40
2019-01-14T19:56:33.937Z,5.97
2019-01-14T19:59:04.860Z,4.10
2019-01-14T20:01:35.801Z,4.70
2019-01-14T20:04:07.014Z,5.10
2019-01-14T20:06:38.040Z,5.80
2019-01-14T20:09:09.011Z,4.27
2019-01-14T20:11:40.244Z,4.53
2019-01-14T20:14:11.217Z,4.70
2019-01-14T20:16:42.190Z,4.60
2019-01-14T20:19:13.257Z,4.80
2019-01-14T20:21:44.251Z,4.70
2019-01-14T20:24:15.311Z,4.83
2019-01-14T20:26:46.370Z,5.53
2019-01-14T20:29:17.387Z,4.03
2019-01-14T20:31:49.424Z,4.77
2019-01-14T20:34:20.409Z,4.27
2019-01-14T20:36:51.450Z,4.33
2019-01-14T20:39:22.510Z,4.00
2019-01-14T20:41:53.552Z,4.17
2019-01-14T20:44:24.610Z,4.20
2019-01-14T20:46:55.704Z,4.67
2019-01-14T20:49:26.695Z,4.63
2019-01-14T20:51:57.771Z,5.00
2019-01-14T20:54:28.707Z,4.87
2019-01-14T20:56:59.693Z,4.83
2019-01-14T20:59:34.563Z,4.43
2019-01-14T21:02:03.355Z,4.30
2019-01-14T21:04:34.383Z,3.53
2019-01-14T21:07:05.535Z,3.97
2019-01-14T21:09:36.572Z,3.80
2019-01-14T21:12:07.551Z,5.40
2019-01-14T21:14:38.725Z,4.60
2019-01-14T21:17:09.841Z,5.00
2019-01-14T21:19:40.887Z,4.50
2019-01-14T21:22:11.870Z,5.03
2019-01-14T21:24:42.933Z,4.20
2019-01-14T21:27:14.035Z,5.27
2019-01-14T21:29:45.117Z,3.47
2019-01-14T21:32:16.115Z,4.33
2019-01-14T21:34:47.090Z,4.07
2019-01-14T21:37:18.106Z,3.53
2019-01-14T21:39:49.046Z,5.10
2019-01-14T21:42:20.015Z,3.40
2019-01-14T21:44:50.991Z,3.20
2019-01-14T21:47:22.026Z,3.73
2019-01-14T21:49:53.055Z,3.40
2019-01-14T21:52:33.725Z,2.67
2019-01-14T21:55:05.179Z,2.87
2019-01-14T21:57:36.230Z,2.77
2019-01-14T22:00:10.314Z,2.73
2019-01-14T22:02:41.458Z,3.00
2019-01-14T22:05:12.434Z,3.23
2019-01-14T22:07:43.432Z,3.43
2019-01-14T22:10:19.308Z,2.80
2019-01-14T22:13:00.594Z,3.33
2019-01-14T22:15:31.789Z,3.70
2019-01-14T22:18:02.862Z,3.27
2019-01-14T22:20:33.798Z,2.87
2019-01-14T22:23:04.751Z,4.00
2019-01-14T22:25:35.687Z,2.80
2019-01-14T22:28:06.771Z,2.67
2019-01-14T22:30:37.801Z,3.97
2019-01-14T22:33:08.901Z,2.53
2019-01-14T22:35:39.938Z,2.63
2019-01-14T22:38:10.978Z,3.53
2019-01-14T22:40:41.919Z,2.60
2019-01-14T22:43:12.873Z,3.10
2019-01-14T22:45:43.785Z,3.10
2019-01-14T22:48:14.757Z,3.27
2019-01-14T22:50:45.767Z,3.47
2019-01-14T22:53:16.821Z,3.77
2019-01-14T22:55:47.759Z,2.70
2019-01-14T22:58:18.695Z,2.77
2019-01-14T23:01:16.205Z,3.10
2019-01-14T23:03:52.143Z,3.03
2019-01-14T23:06:23.179Z,2.70
2019-01-14T23:08:54.202Z,2.63
2019-01-14T23:11:25.256Z,2.70
2019-01-14T23:13:56.178Z,2.77
2019-01-14T23:16:27.220Z,3.20
2019-01-14T23:18:58.278Z,2.93
2019-01-14T23:21:29.218Z,2.40
2019-01-14T23:24:01.378Z,2.60
2019-01-14T23:26:32.348Z,2.70
2019-01-14T23:29:03.435Z,2.67
2019-01-14T23:31:34.344Z,2.73
2019-01-14T23:34:05.623Z,2.20
2019-01-14T23:36:36.666Z,2.70
2019-01-14T23:39:09.864Z,2.77
2019-01-14T23:41:40.862Z,2.50
2019-01-14T23:44:11.818Z,2.40
2019-01-14T23:46:42.732Z,2.80
2019-01-14T23:49:14.794Z,2.87
2019-01-14T23:51:45.722Z,2.60
2019-01-14T23:57:05.537Z,2.60
2019-01-14T23:59:36.492Z,2.70
